createdAt,value
2018-04-22T00:01:01.968Z,91.60
2018-04-22T00:03:03.000Z,92.30
2018-04-22T00:05:03.974Z,92.00
2018-04-22T00:07:04.950Z,92.10
2018-04-22T00:09:06.373Z,91.10
2018-04-22T00:11:07.303Z,92.10
2018-04-22T00:13:08.273Z,92.10
2018-04-22T00:15:09.270Z,91.60
2018-04-22T00:17:10.260Z,91.60
2018-04-22T00:19:11.270Z,90.70
2018-04-22T00:21:13.083Z,90.60
2018-04-22T00:23:14.010Z,90.50
2018-04-22T00:25:14.966Z,91.10
2018-04-22T00:27:15.953Z,90.30
2018-04-22T00:29:16.898Z,90.40
2018-04-22T00:31:17.858Z,90.20
2018-04-22T00:33:18.809Z,91.20
2018-04-22T00:35:19.810Z,91.40
2018-04-22T00:37:20.733Z,91.10
2018-04-22T00:39:22.727Z,90.70
2018-04-22T00:41:23.710Z,90.60
2018-04-22T00:43:24.670Z,90.40
2018-04-22T00:45:26.371Z,91.70
2018-04-22T00:47:27.366Z,91.70
2018-04-22T00:49:28.462Z,93.30
2018-04-22T00:51:29.435Z,93.70
2018-04-22T00:53:30.441Z,93.20
2018-04-22T00:55:31.389Z,91.80
2018-04-22T00:57:32.357Z,91.40
2018-04-22T00:59:33.298Z,91.00
2018-04-22T01:01:34.238Z,91.70
2018-04-22T01:03:35.178Z,91.60
2018-04-22T01:05:36.134Z,92.00
2018-04-22T01:07:37.130Z,93.10
2018-04-22T01:09:38.871Z,94.00
2018-04-22T01:11:39.851Z,93.90
2018-04-22T01:13:41.544Z,92.80
2018-04-22T01:15:42.501Z,92.70
2018-04-22T01:17:43.469Z,93.20
2018-04-22T01:19:44.451Z,93.30
2018-04-22T01:21:46.125Z,93.60
2018-04-22T01:23:47.875Z,93.90
2018-04-22T01:25:48.828Z,93.90
2018-04-22T01:27:49.889Z,95.30
2018-04-22T01:29:51.686Z,95.60
2018-04-22T01:31:53.381Z,95.30
2018-04-22T01:33:55.298Z,95.30
2018-04-22T01:35:56.257Z,95.30
2018-04-22T01:37:57.192Z,95.40
2018-04-22T01:39:58.206Z,95.70
2018-04-22T01:41:59.244Z,95.60
2018-04-22T01:44:00.243Z,95.30
2018-04-22T01:46:01.227Z,95.40
2018-04-22T01:48:02.161Z,95.00
2018-04-22T01:50:03.106Z,94.80
2018-04-22T01:52:04.114Z,94.90
2018-04-22T01:54:05.195Z,94.70
2018-04-22T01:56:06.154Z,95.00
2018-04-22T01:58:07.117Z,94.90
2018-04-22T02:00:08.101Z,94.50
2018-04-22T02:02:09.171Z,94.90
2018-04-22T02:04:10.110Z,94.70
2018-04-22T02:06:11.134Z,94.30
2018-04-22T02:08:12.113Z,94.50
2018-04-22T02:10:13.069Z,94.70
2018-04-22T02:12:14.063Z,94.50
2018-04-22T02:14:15.813Z,94.80
2018-04-22T02:16:17.565Z,94.90
2018-04-22T02:18:18.518Z,95.10
2018-04-22T02:20:19.435Z,94.90
2018-04-22T02:22:20.426Z,95.10
2018-04-22T02:24:22.167Z,95.00
2018-04-22T02:26:23.117Z,95.10
2018-04-22T02:28:24.058Z,95.30
2018-04-22T02:30:25.054Z,95.60
2018-04-22T02:32:25.982Z,95.90
2018-04-22T02:34:27.309Z,95.50
2018-04-22T02:36:28.257Z,95.60
2018-04-22T02:38:29.228Z,95.00
2018-04-22T02:40:30.940Z,95.20
2018-04-22T02:42:31.899Z,95.20
2018-04-22T02:44:33.830Z,95.30
2018-04-22T02:46:34.862Z,95.20
2018-04-22T02:48:36.029Z,95.00
2018-04-22T02:50:36.997Z,94.70
2018-04-22T02:52:37.998Z,94.80
2018-04-22T02:54:38.990Z,95.10
2018-04-22T02:56:39.946Z,95.00
2018-04-22T02:58:40.931Z,94.90
2018-04-22T03:00:41.897Z,94.80
2018-04-22T03:02:42.838Z,94.60
2018-04-22T03:04:43.768Z,94.70
2018-04-22T03:06:44.730Z,95.00
2018-04-22T03:08:45.689Z,95.00
2018-04-22T03:10:46.661Z,95.20
2018-04-22T03:12:47.619Z,95.40
2018-04-22T03:14:48.627Z,95.70
2018-04-22T03:16:50.386Z,95.50
2018-04-22T03:18:51.358Z,95.50
2018-04-22T03:20:52.317Z,95.80
2018-04-22T03:22:53.338Z,95.60
2018-04-22T03:24:54.263Z,95.70
2018-04-22T03:26:55.218Z,95.60
2018-04-22T03:28:56.195Z,95.60
2018-04-22T03:30:57.208Z,95.70
2018-04-22T03:32:58.221Z,95.80
2018-04-22T03:34:59.952Z,96.40
2018-04-22T03:37:00.958Z,96.00
2018-04-22T03:39:01.990Z,95.50
2018-04-22T03:41:03.734Z,96.00
2018-04-22T03:43:04.739Z,96.00
2018-04-22T03:45:05.735Z,96.10
2018-04-22T03:47:08.001Z,96.60
2018-04-22T03:49:09.552Z,96.30
2018-04-22T03:51:10.511Z,96.40
2018-04-22T03:53:11.512Z,94.60
2018-04-22T03:55:12.510Z,95.20
2018-04-22T03:57:14.289Z,93.80
2018-04-22T03:59:16.009Z,94.10
2018-04-22T04:01:16.950Z,94.10
2018-04-22T04:03:17.926Z,94.90
2018-04-22T04:05:18.860Z,94.40
2018-04-22T04:07:19.814Z,95.00
2018-04-22T04:09:21.501Z,94.40
2018-04-22T04:11:23.189Z,95.50
2018-04-22T04:13:24.166Z,95.50
2018-04-22T04:15:25.133Z,95.20
2018-04-22T04:17:26.870Z,95.10
2018-04-22T04:19:40.308Z,95.10
2018-04-22T04:21:53.763Z,95.20
2018-04-22T04:26:50.096Z,96.10
2018-04-22T04:28:51.051Z,96.60
2018-04-22T04:30:52.043Z,96.70
2018-04-22T04:32:53.021Z,96.90
2018-04-22T04:34:53.976Z,96.90
2018-04-22T04:36:55.678Z,97.40
2018-04-22T04:38:56.759Z,97.40
2018-04-22T04:40:57.704Z,97.80
2018-04-22T04:42:59.396Z,97.50
2018-04-22T04:45:00.332Z,97.50
2018-04-22T04:47:01.487Z,97.50
2018-04-22T04:49:02.482Z,96.40
2018-04-22T04:51:03.454Z,96.40
2018-04-22T04:53:05.112Z,97.40
2018-04-22T04:55:06.805Z,96.20
2018-04-22T04:57:07.767Z,96.50
2018-04-22T04:59:08.716Z,95.00
2018-04-22T05:01:09.648Z,95.30
2018-04-22T05:03:10.591Z,96.00
2018-04-22T05:05:11.517Z,95.70
2018-04-22T05:07:13.194Z,96.80
2018-04-22T05:09:14.115Z,96.80
2018-04-22T05:11:15.809Z,97.60
2018-04-22T05:13:16.762Z,97.60
2018-04-22T05:15:18.457Z,97.10
2018-04-22T05:17:19.389Z,97.20
2018-04-22T05:19:20.314Z,97.00
2018-04-22T05:21:21.270Z,97.20
2018-04-22T05:23:22.197Z,97.60
2018-04-22T05:25:23.128Z,97.80
2018-04-22T05:27:24.805Z,96.90
2018-04-22T05:29:25.725Z,96.90
2018-04-22T05:31:27.405Z,96.30
2018-04-22T05:33:28.357Z,96.20
2018-04-22T05:35:29.350Z,95.90
2018-04-22T05:37:30.297Z,95.50
2018-04-22T05:39:31.232Z,95.90
2018-04-22T05:41:32.161Z,95.50
2018-04-22T05:43:33.105Z,95.30
2018-04-22T05:45:34.030Z,95.60
2018-04-22T05:47:34.955Z,94.90
2018-04-22T05:49:36.649Z,94.60
2018-04-22T05:51:37.585Z,94.60
2018-04-22T05:53:38.506Z,94.10
2018-04-22T05:55:40.213Z,93.50
2018-04-22T05:57:41.164Z,93.50
2018-04-22T05:59:42.097Z,93.90
2018-04-22T06:01:43.029Z,93.00
2018-04-22T06:03:43.964Z,92.00
2018-04-22T06:05:44.944Z,91.30
2018-04-22T06:07:45.881Z,91.60
2018-04-22T06:09:46.813Z,92.10
2018-04-22T06:11:47.746Z,89.70
2018-04-22T06:13:48.678Z,89.70
2018-04-22T06:15:50.356Z,87.30
2018-04-22T06:17:51.307Z,87.10
2018-04-22T06:19:52.257Z,80.50
2018-04-22T06:21:53.185Z,84.90
2018-04-22T06:23:54.877Z,77.80
2018-04-22T06:25:55.845Z,78.00
2018-04-22T06:27:56.907Z,82.60
2018-04-22T06:29:57.863Z,81.10
2018-04-22T06:31:58.820Z,81.90
2018-04-22T06:34:00.519Z,78.40
2018-04-22T06:36:01.476Z,77.50
2018-04-22T06:38:02.452Z,75.90
2018-04-22T06:40:03.418Z,75.60
2018-04-22T06:42:05.116Z,72.50
2018-04-22T06:44:06.041Z,72.40
2018-04-22T06:46:07.747Z,67.70
2018-04-22T06:48:08.693Z,67.80
2018-04-22T06:50:09.634Z,71.20
2018-04-22T06:52:10.581Z,70.60
2018-04-22T06:54:11.547Z,69.20
2018-04-22T06:56:12.520Z,73.60
2018-04-22T06:58:14.209Z,74.10
2018-04-22T07:00:15.165Z,73.80
2018-04-22T07:02:16.115Z,65.10
2018-04-22T07:04:17.049Z,70.20
2018-04-22T07:06:17.981Z,66.90
2018-04-22T07:08:18.901Z,63.80
2018-04-22T07:10:19.850Z,60.50
2018-04-22T07:12:20.808Z,61.80
2018-04-22T07:14:22.523Z,64.10
2018-04-22T07:16:23.465Z,64.00
2018-04-22T07:18:24.405Z,64.40
2018-04-22T07:20:25.366Z,54.50
2018-04-22T07:22:26.325Z,55.00
2018-04-22T07:24:27.273Z,55.00
2018-04-22T07:26:28.250Z,55.50
2018-04-22T07:28:29.177Z,48.50
2018-04-22T07:30:30.125Z,55.50
2018-04-22T07:32:31.066Z,50.90
2018-04-22T07:34:32.022Z,46.10
2018-04-22T07:36:33.742Z,44.30
2018-04-22T07:38:34.700Z,44.30
2018-04-22T07:40:35.740Z,48.70
2018-04-22T07:42:37.093Z,45.70
2018-04-22T07:44:38.712Z,45.80
2018-04-22T07:46:40.424Z,42.10
2018-04-22T07:48:41.410Z,42.00
2018-04-22T07:50:43.086Z,43.80
2018-04-22T07:52:44.022Z,43.60
2018-04-22T07:54:45.753Z,47.80
2018-04-22T07:56:46.741Z,47.70
2018-04-22T07:58:47.687Z,47.40
2018-04-22T08:00:49.489Z,47.10
2018-04-22T08:02:50.477Z,42.10
2018-04-22T08:04:52.191Z,42.50
2018-04-22T08:06:53.126Z,42.90
2018-04-22T08:08:54.813Z,44.30
2018-04-22T08:10:55.837Z,44.30
2018-04-22T08:12:56.783Z,46.80
2018-04-22T08:14:58.489Z,45.40
2018-04-22T08:16:59.461Z,45.50
2018-04-22T08:19:01.172Z,42.90
2018-04-22T08:21:02.154Z,42.70
2018-04-22T08:23:03.174Z,46.30
2018-04-22T08:25:04.150Z,46.60
2018-04-22T08:27:05.121Z,48.30
2018-04-22T08:29:08.728Z,48.40
2018-04-22T08:31:10.452Z,48.00
2018-04-22T08:33:14.880Z,47.90
2018-04-22T08:35:15.804Z,51.70
2018-04-22T08:37:16.822Z,48.40
2018-04-22T08:39:17.797Z,47.40
2018-04-22T08:41:18.733Z,44.90
2018-04-22T08:43:20.242Z,47.80
2018-04-22T08:45:21.189Z,47.10
2018-04-22T08:47:22.901Z,47.30
2018-04-22T08:49:23.850Z,47.20
2018-04-22T08:51:24.852Z,44.90
2018-04-22T08:53:25.881Z,43.40
2018-04-22T08:55:26.842Z,43.50
2018-04-22T08:57:28.772Z,44.40
2018-04-22T08:59:29.709Z,44.50
2018-04-22T09:01:30.641Z,43.20
2018-04-22T09:03:31.585Z,44.90
2018-04-22T09:05:32.573Z,45.70
2018-04-22T09:07:33.510Z,41.30
2018-04-22T09:09:34.458Z,43.70
2018-04-22T09:11:35.519Z,44.40
2018-04-22T09:13:36.445Z,38.40
2018-04-22T09:15:37.411Z,41.40
2018-04-22T09:17:38.352Z,36.40
2018-04-22T09:19:39.314Z,41.20
2018-04-22T09:21:41.083Z,40.40
2018-04-22T09:23:42.785Z,39.40
2018-04-22T09:25:43.761Z,39.60
2018-04-22T09:27:44.727Z,42.50
2018-04-22T09:29:45.713Z,40.10
2018-04-22T09:31:46.682Z,42.00
2018-04-22T09:33:47.746Z,39.90
2018-04-22T09:35:48.725Z,39.60
2018-04-22T09:37:50.406Z,39.40
2018-04-22T09:39:51.363Z,39.40
2018-04-22T09:41:52.326Z,39.50
2018-04-22T09:43:53.274Z,39.90
2018-04-22T09:45:54.264Z,38.50
2018-04-22T09:47:55.203Z,41.90
2018-04-22T09:49:56.205Z,38.30
2018-04-22T09:51:57.364Z,40.90
2018-04-22T09:53:58.324Z,40.70
2018-04-22T09:55:59.298Z,38.30
2018-04-22T09:58:00.250Z,42.00
2018-04-22T10:00:01.193Z,42.50
2018-04-22T10:02:04.827Z,42.10
2018-04-22T10:04:09.725Z,41.90
2018-04-22T10:06:10.649Z,42.90
2018-04-22T10:08:11.586Z,40.90
2018-04-22T10:10:12.529Z,41.50
2018-04-22T10:12:13.510Z,43.00
2018-04-22T10:14:14.469Z,38.70
2018-04-22T10:16:15.413Z,39.00
2018-04-22T10:18:16.371Z,38.80
2018-04-22T10:20:18.073Z,36.90
2018-04-22T10:22:19.041Z,37.00
2018-04-22T10:24:20.026Z,40.40
2018-04-22T10:26:21.736Z,35.50
2018-04-22T10:28:23.095Z,36.00
2018-04-22T10:30:24.113Z,33.30
2018-04-22T10:32:25.069Z,36.40
2018-04-22T10:34:26.006Z,32.50
2018-04-22T10:36:26.978Z,31.70
2018-04-22T10:38:27.929Z,32.90
2018-04-22T10:40:28.895Z,37.00
2018-04-22T10:42:30.310Z,35.40
2018-04-22T10:44:31.414Z,34.20
2018-04-22T10:46:32.416Z,35.70
2018-04-22T10:48:33.421Z,37.80
2018-04-22T10:50:35.139Z,36.50
2018-04-22T10:52:36.094Z,36.00
2018-04-22T10:54:37.712Z,36.70
2018-04-22T10:56:38.920Z,34.70
2018-04-22T10:58:39.931Z,35.50
2018-04-22T11:00:40.884Z,32.40
2018-04-22T11:02:41.873Z,36.00
2018-04-22T11:04:42.882Z,32.00
2018-04-22T11:06:44.675Z,31.60
2018-04-22T11:08:45.730Z,33.30
2018-04-22T11:10:47.532Z,35.20
2018-04-22T11:12:48.538Z,34.10
2018-04-22T11:14:49.483Z,37.50
2018-04-22T11:16:50.451Z,37.00
2018-04-22T11:18:51.430Z,35.80
2018-04-22T11:20:52.408Z,35.50
2018-04-22T11:22:53.363Z,36.70
2018-04-22T11:24:55.333Z,39.70
2018-04-22T11:26:56.348Z,37.40
2018-04-22T11:28:57.321Z,34.00
2018-04-22T11:30:58.255Z,35.30
2018-04-22T11:32:59.193Z,32.80
2018-04-22T11:35:00.299Z,33.90
2018-04-22T11:37:01.430Z,35.20
2018-04-22T11:39:03.145Z,34.40
2018-04-22T11:41:04.882Z,34.40
2018-04-22T11:43:05.827Z,34.40
2018-04-22T11:45:06.804Z,38.70
2018-04-22T11:47:07.788Z,36.20
2018-04-22T11:49:08.845Z,34.50
2018-04-22T11:51:10.554Z,35.30
2018-04-22T11:53:11.760Z,35.40
2018-04-22T11:55:12.857Z,34.80
2018-04-22T11:57:13.846Z,39.00
2018-04-22T11:59:14.869Z,36.10
2018-04-22T12:01:16.003Z,38.30
2018-04-22T12:03:16.961Z,35.80
2018-04-22T12:05:17.964Z,33.10
2018-04-22T12:07:18.918Z,33.60
2018-04-22T12:09:19.857Z,34.60
2018-04-22T12:11:20.796Z,34.00
2018-04-22T12:13:22.493Z,36.60
2018-04-22T12:15:23.437Z,36.30
2018-04-22T12:17:24.393Z,37.80
2018-04-22T12:19:27.040Z,35.00
2018-04-22T12:21:28.750Z,33.40
2018-04-22T12:23:29.741Z,33.40
2018-04-22T12:25:31.425Z,33.90
2018-04-22T12:27:32.441Z,33.90
2018-04-22T12:29:33.420Z,31.90
2018-04-22T12:31:34.373Z,34.90
2018-04-22T12:33:35.322Z,33.70
2018-04-22T12:35:36.504Z,34.10
2018-04-22T12:37:37.539Z,30.60
2018-04-22T12:39:38.510Z,31.10
2018-04-22T12:41:39.506Z,33.30
2018-04-22T12:43:40.533Z,30.10
2018-04-22T12:45:42.202Z,33.30
2018-04-22T12:47:43.902Z,37.70
2018-04-22T12:49:44.890Z,37.50
2018-04-22T12:51:45.827Z,36.40
2018-04-22T12:53:46.862Z,34.00
2018-04-22T12:55:47.837Z,34.80
2018-04-22T12:57:48.789Z,37.50
2018-04-22T12:59:50.466Z,36.00
2018-04-22T13:01:51.413Z,36.10
2018-04-22T13:03:52.416Z,39.30
2018-04-22T13:05:53.382Z,37.00
2018-04-22T13:07:54.474Z,41.20
2018-04-22T13:09:55.401Z,36.90
2018-04-22T13:11:56.354Z,33.00
2018-04-22T13:13:57.399Z,35.70
2018-04-22T13:16:01.240Z,38.30
2018-04-22T13:18:03.074Z,38.00
2018-04-22T13:20:04.072Z,38.00
2018-04-22T13:22:05.031Z,36.70
2018-04-22T13:24:05.974Z,38.10
2018-04-22T13:26:06.911Z,37.90
2018-04-22T13:28:07.878Z,37.20
2018-04-22T13:30:08.885Z,41.60
2018-04-22T13:32:09.995Z,38.00
2018-04-22T13:34:10.962Z,40.90
2018-04-22T13:36:11.900Z,37.20
2018-04-22T13:38:14.069Z,37.10
2018-04-22T13:40:15.044Z,37.40
2018-04-22T13:42:16.162Z,36.40
2018-04-22T13:44:17.117Z,36.00
2018-04-22T13:46:18.058Z,36.40
2018-04-22T13:48:19.010Z,35.40
2018-04-22T13:50:20.018Z,35.60
2018-04-22T13:52:20.954Z,35.20
2018-04-22T13:54:22.874Z,37.60
2018-04-22T13:56:23.915Z,36.10
2018-04-22T13:58:24.872Z,34.30
2018-04-22T14:00:25.838Z,33.70
2018-04-22T14:02:26.806Z,39.30
2018-04-22T14:04:27.760Z,35.50
2018-04-22T14:06:28.686Z,34.00
2018-04-22T14:08:29.646Z,36.20
2018-04-22T14:10:31.347Z,34.20
2018-04-22T14:12:32.303Z,34.20
2018-04-22T14:14:33.236Z,35.20
2018-04-22T14:16:34.221Z,34.10
2018-04-22T14:18:35.212Z,39.00
2018-04-22T14:20:36.893Z,36.50
2018-04-22T14:22:37.887Z,36.90
2018-04-22T14:24:38.842Z,36.60
2018-04-22T14:26:44.297Z,38.10
2018-04-22T14:28:45.270Z,37.10
2018-04-22T14:30:46.445Z,37.70
2018-04-22T14:32:47.511Z,36.80
2018-04-22T14:34:48.971Z,37.50
2018-04-22T14:36:50.728Z,39.80
2018-04-22T14:38:51.653Z,39.90
2018-04-22T14:40:53.813Z,39.50
2018-04-22T14:42:54.787Z,39.00
2018-04-22T14:45:08.113Z,40.90
2018-04-22T14:47:09.101Z,38.20
2018-04-22T14:49:10.046Z,38.20
2018-04-22T14:51:11.995Z,39.60
2018-04-22T14:53:12.974Z,37.20
2018-04-22T14:55:13.942Z,37.30
2018-04-22T14:57:15.629Z,42.30
2018-04-22T14:59:16.595Z,42.20
2018-04-22T15:01:17.557Z,38.70
2018-04-22T15:03:18.493Z,39.10
2018-04-22T15:05:20.351Z,38.20
2018-04-22T15:07:21.306Z,40.80
2018-04-22T15:09:22.266Z,40.70
2018-04-22T15:11:23.242Z,42.00
2018-04-22T15:13:24.983Z,41.00
2018-04-22T15:15:25.982Z,41.10
2018-04-22T15:17:27.669Z,45.90
2018-04-22T15:19:28.607Z,45.30
2018-04-22T15:21:29.537Z,43.60
2018-04-22T15:23:30.462Z,44.00
2018-04-22T15:25:31.399Z,41.30
2018-04-22T15:27:32.320Z,43.80
2018-04-22T15:29:33.254Z,45.80
2018-04-22T15:31:34.355Z,46.30
2018-04-22T15:33:35.384Z,45.60
2018-04-22T15:35:36.471Z,45.10
2018-04-22T15:37:37.402Z,46.60
2018-04-22T15:39:47.138Z,43.00
2018-04-22T15:41:48.089Z,45.60
2018-04-22T15:43:51.081Z,46.70
2018-04-22T15:45:52.110Z,46.70
2018-04-22T15:47:54.261Z,48.40
2018-04-22T15:49:55.257Z,49.00
2018-04-22T15:51:56.201Z,52.50
2018-04-22T15:53:57.210Z,48.10
2018-04-22T15:55:59.635Z,48.20
2018-04-22T15:58:00.819Z,48.40
2018-04-22T16:00:01.829Z,51.80
2018-04-22T16:02:02.757Z,47.00
2018-04-22T16:04:04.442Z,49.50
2018-04-22T16:06:05.370Z,49.70
2018-04-22T16:08:07.042Z,50.30
2018-04-22T16:10:07.978Z,50.40
2018-04-22T16:12:09.649Z,52.70
2018-04-22T16:14:12.689Z,54.00
2018-04-22T16:16:14.538Z,53.90
2018-04-22T16:18:15.504Z,53.40
2018-04-22T16:20:16.430Z,54.50
2018-04-22T16:22:17.361Z,56.10
2018-04-22T16:24:18.300Z,54.00
2018-04-22T16:26:19.719Z,57.10
2018-04-22T16:28:20.697Z,54.30
2018-04-22T16:30:30.755Z,55.70
2018-04-22T16:32:32.668Z,56.40
2018-04-22T16:34:33.609Z,56.40
2018-04-22T16:36:34.526Z,55.00
2018-04-22T16:38:35.466Z,57.20
2018-04-22T16:40:36.421Z,56.20
2018-04-22T16:42:37.353Z,57.30
2018-04-22T16:44:38.673Z,59.10
2018-04-22T16:46:42.786Z,57.80
2018-04-22T16:48:44.352Z,59.00
2018-04-22T16:50:49.176Z,61.50
2018-04-22T16:52:50.201Z,61.20
2018-04-22T16:54:51.161Z,61.20
2018-04-22T16:56:54.945Z,62.60
2018-04-22T16:58:55.981Z,62.70
2018-04-22T17:03:06.896Z,61.10
2018-04-22T17:05:08.914Z,61.40
2018-04-22T17:07:09.893Z,60.10
2018-04-22T17:09:10.854Z,62.90
2018-04-22T17:11:11.981Z,62.90
2018-04-22T17:13:12.966Z,65.10
2018-04-22T17:15:13.922Z,65.90
2018-04-22T17:17:14.851Z,76.20
2018-04-22T17:19:15.810Z,60.10
2018-04-22T17:21:17.490Z,62.20
2018-04-22T17:23:18.421Z,62.00
2018-04-22T17:25:19.365Z,55.80
2018-04-22T17:27:20.296Z,55.70
2018-04-22T17:29:21.221Z,52.30
2018-04-22T17:31:22.157Z,48.60
2018-04-22T17:33:23.110Z,46.00
2018-04-22T17:35:26.933Z,43.40
2018-04-22T17:37:28.041Z,42.80
2018-04-22T17:39:29.025Z,45.60
2018-04-22T17:41:32.714Z,40.20
2018-04-22T17:43:34.611Z,43.90
2018-04-22T17:45:35.598Z,44.00
2018-04-22T17:47:36.554Z,43.40
2018-04-22T17:49:37.509Z,45.90
2018-04-22T17:51:38.469Z,39.80
2018-04-22T17:53:40.169Z,40.90
2018-04-22T17:55:41.858Z,45.50
2018-04-22T17:57:44.406Z,45.60
2018-04-22T17:59:46.174Z,43.80
2018-04-22T18:01:47.174Z,43.60
2018-04-22T18:03:48.177Z,44.90
2018-04-22T18:05:49.202Z,42.30
2018-04-22T18:08:08.086Z,44.20
2018-04-22T18:10:09.066Z,43.60
2018-04-22T18:12:10.005Z,42.40
2018-04-22T18:14:11.083Z,46.60
2018-04-22T18:16:12.838Z,45.20
2018-04-22T18:18:13.798Z,45.20
2018-04-22T18:20:14.754Z,45.60
2018-04-22T18:22:16.081Z,44.10
2018-04-22T18:24:31.458Z,45.50
2018-04-22T18:26:36.071Z,45.50
2018-04-22T18:28:37.116Z,44.20
2018-04-22T18:30:49.998Z,47.10
2018-04-22T18:32:51.178Z,45.60
2018-04-22T18:34:52.205Z,48.50
2018-04-22T18:36:56.123Z,51.10
2018-04-22T18:39:00.326Z,47.70
2018-04-22T18:41:02.110Z,48.30
2018-04-22T18:43:03.789Z,48.10
2018-04-22T18:45:05.530Z,47.70
2018-04-22T18:47:06.573Z,48.30
2018-04-22T18:49:09.266Z,48.10
2018-04-22T18:51:21.138Z,48.30
2018-04-22T18:53:22.254Z,48.50
2018-04-22T18:55:24.212Z,48.40
2018-04-22T18:57:25.224Z,44.50
2018-04-22T18:59:26.946Z,46.30
2018-04-22T19:01:39.027Z,46.40
2018-04-22T19:03:40.028Z,47.40
2018-04-22T19:05:41.782Z,49.30
2018-04-22T19:07:42.784Z,49.30
2018-04-22T19:09:43.750Z,48.80
2018-04-22T19:11:44.979Z,47.80
2018-04-22T19:13:45.962Z,48.00
2018-04-22T19:15:47.962Z,49.50
2018-04-22T19:17:48.979Z,51.70
2018-04-22T19:19:49.965Z,53.00
2018-04-22T19:21:50.958Z,54.80
2018-04-22T19:23:51.965Z,55.30
2018-04-22T19:25:53.680Z,57.30
2018-04-22T19:27:54.716Z,57.30
2018-04-22T19:29:55.861Z,59.00
2018-04-22T19:31:56.861Z,57.20
2018-04-22T19:33:57.854Z,57.90
2018-04-22T19:35:58.876Z,56.60
2018-04-22T19:37:59.868Z,58.00
2018-04-22T19:40:00.858Z,59.20
2018-04-22T19:42:01.885Z,58.50
2018-04-22T19:44:02.932Z,59.80
2018-04-22T19:46:04.771Z,61.80
2018-04-22T19:48:05.855Z,61.80
2018-04-22T19:50:06.987Z,63.80
2018-04-22T19:52:07.973Z,65.20
2018-04-22T19:54:12.436Z,66.40
2018-04-22T19:56:13.643Z,66.80
2018-04-22T19:58:15.361Z,68.60
2018-04-22T20:00:20.009Z,68.50
2018-04-22T20:02:21.155Z,68.70
2018-04-22T20:04:25.669Z,68.80
2018-04-22T20:06:26.643Z,70.80
2018-04-22T20:08:27.594Z,69.20
2018-04-22T20:10:28.562Z,68.40
2018-04-22T20:12:30.363Z,71.40
2018-04-22T20:14:31.382Z,71.50
2018-04-22T20:16:32.326Z,72.70
2018-04-22T20:18:33.282Z,78.80
2018-04-22T20:20:34.306Z,80.70
2018-04-22T20:22:35.322Z,83.90
2018-04-22T20:24:36.309Z,83.70
2018-04-22T20:26:37.276Z,86.90
2018-04-22T20:28:38.386Z,85.10
2018-04-22T20:30:39.497Z,84.50
2018-04-22T20:32:40.476Z,87.10
2018-04-22T20:34:42.346Z,86.60
2018-04-22T20:36:44.189Z,91.30
2018-04-22T20:38:45.217Z,91.30
2018-04-22T20:40:46.927Z,91.30
2018-04-22T20:42:48.785Z,95.70
2018-04-22T20:44:50.501Z,98.60
2018-04-22T20:46:51.454Z,98.60
2018-04-22T20:48:52.408Z,99.10
2018-04-22T20:50:53.360Z,99.90
2018-04-22T20:52:54.309Z,99.90
2018-04-22T20:54:55.513Z,99.90
2018-04-22T20:56:57.203Z,99.90
2018-04-22T20:58:58.222Z,99.90
2018-04-22T21:00:59.199Z,99.90
2018-04-22T21:03:00.155Z,99.90
2018-04-22T21:05:01.103Z,99.90
2018-04-22T21:07:02.071Z,99.90
2018-04-22T21:09:03.049Z,99.90
2018-04-22T21:11:04.012Z,99.90
2018-04-22T21:13:04.942Z,99.90
2018-04-22T21:15:05.887Z,99.90
2018-04-22T21:17:06.940Z,99.90
2018-04-22T21:19:07.914Z,99.90
2018-04-22T21:21:08.906Z,99.90
2018-04-22T21:23:10.603Z,99.90
2018-04-22T21:25:11.571Z,99.90
2018-04-22T21:27:12.517Z,99.90
2018-04-22T21:29:13.589Z,99.90
2018-04-22T21:31:14.575Z,99.90
2018-04-22T21:33:16.278Z,99.90
2018-04-22T21:35:17.223Z,99.90
2018-04-22T21:37:18.170Z,99.90
2018-04-22T21:39:19.098Z,99.90
2018-04-22T21:41:20.091Z,99.90
2018-04-22T21:43:21.066Z,99.90
2018-04-22T21:45:22.846Z,99.90
2018-04-22T21:47:23.829Z,99.90
2018-04-22T21:49:24.795Z,99.90
2018-04-22T21:51:25.743Z,99.90
2018-04-22T21:53:26.707Z,99.90
2018-04-22T21:55:28.479Z,99.90
2018-04-22T21:57:29.461Z,99.90
2018-04-22T21:59:30.423Z,99.90
2018-04-22T22:01:31.406Z,99.90
2018-04-22T22:03:32.342Z,99.90
2018-04-22T22:05:33.281Z,99.90
2018-04-22T22:07:34.726Z,99.90
2018-04-22T22:09:35.751Z,99.90
2018-04-22T22:11:36.726Z,99.90
2018-04-22T22:13:37.779Z,99.90
2018-04-22T22:15:38.754Z,99.90
2018-04-22T22:17:39.765Z,99.90
2018-04-22T22:19:40.779Z,99.90
2018-04-22T22:21:41.814Z,99.90
2018-04-22T22:23:42.807Z,99.90
2018-04-22T22:25:43.826Z,99.90
2018-04-22T22:27:44.815Z,99.90
2018-04-22T22:29:45.794Z,99.90
2018-04-22T22:31:46.829Z,99.90
2018-04-22T22:33:48.550Z,99.90
2018-04-22T22:35:49.496Z,99.90
2018-04-22T22:37:50.519Z,99.90
2018-04-22T22:39:51.482Z,99.90
2018-04-22T22:41:52.470Z,99.90
2018-04-22T22:43:54.198Z,99.90
2018-04-22T22:45:55.202Z,99.90
2018-04-22T22:47:56.161Z,99.90
2018-04-22T22:49:57.147Z,99.90
2018-04-22T22:51:58.205Z,99.90
2018-04-22T22:53:59.188Z,99.90
2018-04-22T22:56:00.180Z,99.90
2018-04-22T22:58:01.202Z,99.90
2018-04-22T23:00:02.231Z,99.90
2018-04-22T23:02:03.233Z,99.90
2018-04-22T23:04:04.223Z,99.90
2018-04-22T23:06:05.159Z,99.90
2018-04-22T23:08:06.878Z,99.90
2018-04-22T23:10:07.863Z,99.90
2018-04-22T23:12:08.870Z,99.90
2018-04-22T23:14:09.821Z,99.90
2018-04-22T23:16:10.828Z,99.90
2018-04-22T23:18:11.778Z,99.90
2018-04-22T23:20:12.735Z,99.90
2018-04-22T23:22:13.749Z,99.90
2018-04-22T23:24:15.473Z,99.90
2018-04-22T23:26:16.426Z,99.90
2018-04-22T23:28:17.418Z,99.90
2018-04-22T23:30:19.192Z,99.90
2018-04-22T23:32:20.214Z,99.90
2018-04-22T23:34:21.996Z,99.90
2018-04-22T23:36:22.956Z,99.90
2018-04-22T23:38:23.922Z,99.90
2018-04-22T23:40:24.916Z,99.90
2018-04-22T23:42:26.003Z,99.90
2018-04-22T23:44:26.943Z,99.90
2018-04-22T23:46:27.891Z,99.90
2018-04-22T23:48:28.900Z,99.90
2018-04-22T23:50:30.617Z,99.90
2018-04-22T23:52:31.627Z,99.90
2018-04-22T23:54:32.747Z,99.90
2018-04-22T23:56:34.475Z,99.90
2018-04-22T23:58:35.444Z,99.90
